VIDP/DEL METAR and TAF weather

Enter ICAO airport designator
Station Type Date Time Source
VIDP METAR 2021/01/17 18:00 UTC NOAA

VIDP 171800Z 10007KT 1000 R28/P2000 R29/P2000 BR BKN009 11/11 Q1017 NOSIG


Station Type Date Time Source
VIDP Decoded METAR 2021/01/17 18:00 UTC NOAA

New Delhi / Palam, India (VIDP) 28-34N 077-07E 233M
Jan 17, 2021 - 01:00 PM EST / 2021.01.17 1800 UTC
Wind: from the E (100 degrees) at 8 MPH (7 KT):0
Visibility: less than 1 mile:0
Sky conditions: mostly cloudy
Weather: mist
Temperature: 51 F (11 C)
Dew Point: 51 F (11 C)
Relative Humidity: 100%
Pressure (altimeter): 30.03 in. Hg (1017 hPa)
ob: VIDP 171800Z 10007KT 1000 R28/P2000 R29/P2000 BR BKN009 11/11 Q1017 NOSIG
cycle: 18

Station Type Date Time Source
VIDP TAF 2021/01/17 18:35 UTC NOAA

TAF VIDP 171700Z 1718/1824 09007KT 0800 MIFG BKN009
BECMG 1801/1803 0200 FG VV///
BECMG 1804/1806 13004KT 0600 MIFG BKN008
BECMG 1808/1810 1000 FU NSC
BECMG 1815/1817 00000KT 0500 MIFG
BECMG 1820/1822 0200 FG VV///

Example: see airport list